createdAt,value
2023-04-16T00:01:08.410Z,12.20
2023-04-16T00:03:39.365Z,11.80
2023-04-16T00:06:12.759Z,16.00
2023-04-16T00:08:43.924Z,11.40
2023-04-16T00:11:13.734Z,14.40
2023-04-16T00:13:45.730Z,16.10
2023-04-16T00:16:18.128Z,11.30
2023-04-16T00:18:48.055Z,10.20
2023-04-16T00:21:17.649Z,14.50
2023-04-16T00:23:47.524Z,10.10
2023-04-16T00:26:17.146Z,10.00
2023-04-16T00:28:47.458Z,13.90
2023-04-16T00:31:17.254Z,10.60
2023-04-16T00:33:46.957Z,12.80
2023-04-16T00:36:17.894Z,12.10
2023-04-16T00:38:47.453Z,14.20
2023-04-16T00:41:17.841Z,15.10
2023-04-16T00:43:47.438Z,12.60
2023-04-16T00:46:17.408Z,12.20
2023-04-16T00:48:47.578Z,10.40
2023-04-16T00:51:20.228Z,10.10
2023-04-16T00:53:49.935Z,10.70
2023-04-16T00:56:23.146Z,11.00
2023-04-16T00:58:52.661Z,13.40
2023-04-16T01:01:22.198Z,11.90
2023-04-16T01:03:52.406Z,10.50
2023-04-16T01:06:22.628Z,12.10
2023-04-16T01:08:53.561Z,8.90
2023-04-16T01:11:23.149Z,12.50
2023-04-16T01:13:52.883Z,15.60
2023-04-16T01:16:22.687Z,9.90
2023-04-16T01:18:53.507Z,12.10
2023-04-16T01:21:24.627Z,10.30
2023-04-16T01:23:55.773Z,7.40
2023-04-16T01:26:26.725Z,7.50
2023-04-16T01:28:56.576Z,9.60
2023-04-16T01:31:27.629Z,5.50
2023-04-16T01:34:26.490Z,7.00
2023-04-16T01:36:56.342Z,7.70
2023-04-16T01:39:27.507Z,7.50
2023-04-16T01:41:57.369Z,9.50
2023-04-16T01:44:28.351Z,8.40
2023-04-16T01:46:58.357Z,10.40
2023-04-16T01:49:31.041Z,8.00
2023-04-16T01:52:05.861Z,10.10
2023-04-16T01:54:36.519Z,10.00
2023-04-16T01:57:07.055Z,7.50
2023-04-16T01:59:42.208Z,7.60
2023-04-16T02:02:16.857Z,30.20
2023-04-16T02:04:47.030Z,9.30
2023-04-16T02:07:16.749Z,6.90
2023-04-16T02:09:46.563Z,8.60
2023-04-16T02:12:16.979Z,9.60
2023-04-16T02:14:46.978Z,8.30
2023-04-16T02:17:18.065Z,8.20
2023-04-16T02:19:50.517Z,10.90
2023-04-16T02:22:21.649Z,8.90
2023-04-16T02:24:52.122Z,6.40
2023-04-16T02:27:22.759Z,9.00
2023-04-16T02:29:53.643Z,8.30
2023-04-16T02:32:23.480Z,7.40
2023-04-16T02:34:53.030Z,9.40
2023-04-16T02:37:23.093Z,10.50
2023-04-16T02:39:53.720Z,6.50
2023-04-16T02:42:24.592Z,9.40
2023-04-16T02:44:54.634Z,9.70
2023-04-16T02:47:24.384Z,8.50
2023-04-16T02:49:53.913Z,10.20
2023-04-16T02:52:25.204Z,7.20
2023-04-16T02:54:56.556Z,8.70
2023-04-16T02:57:27.537Z,7.70
2023-04-16T02:59:59.931Z,8.30
2023-04-16T03:02:29.808Z,10.20
2023-04-16T03:04:59.687Z,6.20
2023-04-16T03:07:30.902Z,5.80
2023-04-16T03:10:00.760Z,6.90
2023-04-16T03:12:32.758Z,7.30
2023-04-16T03:15:02.879Z,8.40
2023-04-16T03:17:32.744Z,8.90
2023-04-16T03:20:02.516Z,7.90
2023-04-16T03:22:33.564Z,8.60
2023-04-16T03:25:03.641Z,9.30
2023-04-16T03:27:35.167Z,8.70
2023-04-16T03:30:12.604Z,9.00
2023-04-16T03:32:43.153Z,12.50
2023-04-16T03:35:13.095Z,10.90
2023-04-16T03:37:42.742Z,9.20
2023-04-16T03:40:14.094Z,7.80
2023-04-16T03:42:49.364Z,8.60
2023-04-16T03:45:20.203Z,11.60
2023-04-16T03:47:53.040Z,9.40
2023-04-16T03:50:25.175Z,9.30
2023-04-16T03:52:55.958Z,12.50
2023-04-16T03:55:38.720Z,7.80
2023-04-16T03:58:08.854Z,13.50
2023-04-16T04:00:43.990Z,9.10
2023-04-16T04:06:28.229Z,12.30
2023-04-16T04:08:58.757Z,11.00
2023-04-16T04:11:28.516Z,13.40
2023-04-16T04:14:00.663Z,11.50
2023-04-16T04:16:31.815Z,12.00
2023-04-16T04:19:05.260Z,11.20
2023-04-16T04:21:35.120Z,13.10
2023-04-16T04:24:06.984Z,11.50
2023-04-16T04:26:36.867Z,13.40
2023-04-16T04:29:06.796Z,11.10
2023-04-16T04:31:37.781Z,12.20
2023-04-16T04:34:07.998Z,9.50
2023-04-16T04:36:39.596Z,10.10
2023-04-16T04:39:09.391Z,14.30
2023-04-16T04:41:39.384Z,9.80
2023-04-16T04:44:09.946Z,12.00
2023-04-16T04:46:42.907Z,13.10
2023-04-16T04:49:13.118Z,12.30
2023-04-16T04:51:43.639Z,9.50
2023-04-16T04:54:13.456Z,8.80
2023-04-16T04:56:47.596Z,11.20
2023-04-16T04:59:17.706Z,11.60
2023-04-16T05:01:51.681Z,11.00
2023-04-16T05:04:21.510Z,12.70
2023-04-16T05:06:52.047Z,10.80
2023-04-16T05:09:23.407Z,12.90
2023-04-16T05:11:56.071Z,13.80
2023-04-16T05:14:26.911Z,12.70
2023-04-16T05:16:57.558Z,11.00
2023-04-16T05:19:27.160Z,13.80
2023-04-16T05:21:57.035Z,10.20
2023-04-16T05:24:27.712Z,11.80
2023-04-16T05:26:58.434Z,10.00
2023-04-16T05:29:42.529Z,12.90
2023-04-16T05:32:17.183Z,12.50
2023-04-16T05:34:47.206Z,12.70
2023-04-16T05:37:17.893Z,16.90
2023-04-16T05:39:49.733Z,12.70
2023-04-16T05:42:21.686Z,12.50
2023-04-16T05:44:53.357Z,8.10
2023-04-16T05:47:23.028Z,14.60
2023-04-16T05:49:52.832Z,10.50
2023-04-16T05:52:22.506Z,9.10
2023-04-16T05:54:52.074Z,12.30
2023-04-16T05:57:23.024Z,10.50
2023-04-16T05:59:53.063Z,12.50
2023-04-16T06:02:24.502Z,12.70
2023-04-16T06:04:57.071Z,7.30
2023-04-16T06:07:28.754Z,14.30
2023-04-16T06:10:02.175Z,13.20
2023-04-16T06:12:33.592Z,13.60
2023-04-16T06:15:05.148Z,10.80
2023-04-16T06:17:38.662Z,13.30
2023-04-16T06:20:08.973Z,12.40
2023-04-16T06:22:40.104Z,10.50
2023-04-16T06:25:10.433Z,8.90
2023-04-16T06:27:40.062Z,10.80
2023-04-16T06:30:14.572Z,11.90
2023-04-16T06:32:44.685Z,9.00
2023-04-16T06:35:14.390Z,9.90
2023-04-16T06:37:44.414Z,15.40
2023-04-16T06:40:16.519Z,8.50
2023-04-16T06:42:47.053Z,13.20
2023-04-16T06:45:17.039Z,62.10
2023-04-16T06:47:48.400Z,15.40
2023-04-16T06:50:22.395Z,12.50
2023-04-16T06:52:56.191Z,7.80
2023-04-16T06:55:27.489Z,10.80
2023-04-16T06:57:59.674Z,18.30
2023-04-16T07:00:31.461Z,10.10
2023-04-16T07:03:09.122Z,15.00
2023-04-16T07:05:39.966Z,13.30
2023-04-16T07:08:11.464Z,11.60
2023-04-16T07:10:41.157Z,9.40
2023-04-16T07:13:10.788Z,12.50
2023-04-16T07:15:40.902Z,13.10
2023-04-16T07:18:12.091Z,11.90
2023-04-16T07:20:41.716Z,11.20
2023-04-16T07:23:11.605Z,10.10
2023-04-16T07:25:42.707Z,12.70
2023-04-16T07:28:12.431Z,13.60
2023-04-16T07:30:47.172Z,9.40
2023-04-16T07:33:19.490Z,8.10
2023-04-16T07:35:49.442Z,10.60
2023-04-16T07:38:19.281Z,46.50
2023-04-16T07:41:02.279Z,17.70
2023-04-16T07:43:33.321Z,12.20
2023-04-16T07:46:03.800Z,13.40
2023-04-16T07:48:33.982Z,10.60
2023-04-16T07:51:04.054Z,53.80
2023-04-16T07:53:34.985Z,45.90
2023-04-16T07:56:07.331Z,20.10
2023-04-16T07:58:36.850Z,16.30
2023-04-16T08:01:06.603Z,27.20
2023-04-16T08:03:36.905Z,31.70
2023-04-16T08:06:07.077Z,29.70
2023-04-16T08:08:38.413Z,23.10
2023-04-16T08:11:08.859Z,14.60
2023-04-16T08:13:38.860Z,12.90
2023-04-16T08:16:18.309Z,13.60
2023-04-16T08:18:48.709Z,17.00
2023-04-16T08:21:35.461Z,61.50
2023-04-16T08:24:05.663Z,24.40
2023-04-16T08:26:38.848Z,15.60
2023-04-16T08:29:08.602Z,11.80
2023-04-16T08:31:38.594Z,19.90
2023-04-16T08:34:08.372Z,19.10
2023-04-16T08:36:37.945Z,13.20
2023-04-16T08:39:08.030Z,9.90
2023-04-16T08:41:42.452Z,11.40
2023-04-16T08:44:42.892Z,11.40
2023-04-16T08:47:16.093Z,8.00
2023-04-16T08:49:48.921Z,6.10
2023-04-16T08:52:20.555Z,11.30
2023-04-16T08:55:13.568Z,13.60
2023-04-16T08:57:58.552Z,9.00
2023-04-16T09:00:33.860Z,10.40
2023-04-16T09:03:05.004Z,9.10
2023-04-16T09:05:38.968Z,9.70
2023-04-16T09:08:08.849Z,8.90
2023-04-16T09:10:40.053Z,7.20
2023-04-16T09:13:17.036Z,8.80
2023-04-16T09:15:47.553Z,8.20
2023-04-16T09:18:18.791Z,5.20
2023-04-16T09:20:52.479Z,4.80
2023-04-16T09:23:25.205Z,6.30
2023-04-16T09:25:55.676Z,4.60
2023-04-16T09:28:49.029Z,4.40
2023-04-16T09:31:19.973Z,8.20
2023-04-16T09:34:04.241Z,5.30
2023-04-16T09:36:36.138Z,5.50
2023-04-16T09:39:06.226Z,3.90
2023-04-16T09:41:40.997Z,5.70
2023-04-16T09:44:10.613Z,5.00
2023-04-16T09:46:44.678Z,2.40
2023-04-16T09:52:54.263Z,2.50
2023-04-16T09:55:45.899Z,5.50
2023-04-16T09:58:21.223Z,3.80
2023-04-16T10:01:13.199Z,2.70
2023-04-16T10:03:45.916Z,5.60
2023-04-16T10:06:21.913Z,6.20
2023-04-16T10:09:00.529Z,4.30
2023-04-16T10:11:33.193Z,7.30
2023-04-16T10:15:19.141Z,4.70
2023-04-16T10:26:33.103Z,7.80
2023-04-16T10:30:15.573Z,7.30
2023-04-16T11:11:10.897Z,8.90
2023-04-16T11:14:15.817Z,7.30
2023-04-16T11:16:47.732Z,11.90
2023-04-16T11:19:22.679Z,9.70
2023-04-16T11:21:59.262Z,9.90
2023-04-16T11:24:59.916Z,9.10
2023-04-16T11:27:33.521Z,7.70
2023-04-16T11:30:13.325Z,8.00
2023-04-16T11:32:45.036Z,10.60
2023-04-16T11:35:17.859Z,6.60
2023-04-16T11:37:57.818Z,8.90
2023-04-16T11:40:31.871Z,10.00
2023-04-16T11:43:22.161Z,8.40
2023-04-16T11:45:59.540Z,6.00
2023-04-16T11:49:06.247Z,10.30
2023-04-16T11:51:49.760Z,6.50
2023-04-16T11:54:26.428Z,7.80
2023-04-16T11:56:56.195Z,11.40
2023-04-16T12:00:01.762Z,8.50
2023-04-16T12:03:06.350Z,7.60
2023-04-16T12:05:53.824Z,7.70
2023-04-16T12:08:33.014Z,6.50
2023-04-16T12:11:04.605Z,7.90
2023-04-16T12:13:44.564Z,7.50
2023-04-16T12:16:35.734Z,6.00
2023-04-16T12:19:15.426Z,8.20
2023-04-16T12:21:51.083Z,8.50
2023-04-16T12:24:25.547Z,6.90
2023-04-16T12:27:42.836Z,4.70
2023-04-16T12:30:15.903Z,7.30
2023-04-16T12:32:53.547Z,6.50
2023-04-16T12:35:40.309Z,7.20
2023-04-16T12:38:12.261Z,8.00
2023-04-16T12:40:42.880Z,7.20
2023-04-16T12:43:13.607Z,10.80
2023-04-16T12:45:46.570Z,8.30
2023-04-16T12:48:17.334Z,8.90
2023-04-16T12:50:49.251Z,11.10
2023-04-16T12:53:20.967Z,6.50
2023-04-16T12:55:56.807Z,12.10
2023-04-16T12:58:39.234Z,12.10
2023-04-16T13:01:14.509Z,14.40
2023-04-16T13:03:45.740Z,11.40
2023-04-16T13:06:22.877Z,10.10
2023-04-16T13:08:52.768Z,13.70
2023-04-16T13:11:25.320Z,9.60
2023-04-16T13:13:54.807Z,10.50
2023-04-16T13:16:24.527Z,9.80
2023-04-16T13:18:54.151Z,10.40
2023-04-16T13:21:24.015Z,9.60
2023-04-16T13:23:54.214Z,9.80
2023-04-16T13:26:24.510Z,7.80
2023-04-16T13:28:54.977Z,10.60
2023-04-16T13:31:26.310Z,10.20
2023-04-16T13:33:56.617Z,8.60
2023-04-16T13:36:29.038Z,7.50
2023-04-16T13:39:20.156Z,9.40
2023-04-16T13:41:56.943Z,8.20
2023-04-16T13:44:26.598Z,8.60
2023-04-16T13:47:03.777Z,11.60
2023-04-16T13:49:37.972Z,7.80
2023-04-16T13:52:07.661Z,8.20
2023-04-16T13:54:44.241Z,10.70
2023-04-16T13:57:23.097Z,9.00
2023-04-16T13:59:53.057Z,11.20
2023-04-16T14:02:22.964Z,5.80
2023-04-16T14:05:08.866Z,7.20
2023-04-16T14:07:39.290Z,6.40
2023-04-16T14:10:09.871Z,8.60
2023-04-16T14:12:57.559Z,8.30
2023-04-16T14:15:30.297Z,11.30
2023-04-16T14:18:01.461Z,9.30
2023-04-16T14:20:31.437Z,7.10
2023-04-16T14:23:01.641Z,10.20
2023-04-16T14:25:35.960Z,11.90
2023-04-16T14:28:06.677Z,8.10
2023-04-16T14:30:36.305Z,6.60
2023-04-16T14:33:07.760Z,9.70
2023-04-16T14:35:37.483Z,12.00
2023-04-16T14:38:07.345Z,12.80
2023-04-16T14:40:38.836Z,13.00
2023-04-16T14:43:08.990Z,12.70
2023-04-16T14:45:39.440Z,12.70
2023-04-16T14:48:09.092Z,12.50
2023-04-16T14:50:44.943Z,10.20
2023-04-16T14:53:14.859Z,12.40
2023-04-16T14:55:49.200Z,11.00
2023-04-16T14:58:19.105Z,13.40
2023-04-16T15:00:50.611Z,10.90
2023-04-16T15:03:22.589Z,11.20
2023-04-16T15:06:13.857Z,13.30
2023-04-16T15:08:44.320Z,8.40
2023-04-16T15:11:21.224Z,10.30
2023-04-16T15:14:13.613Z,13.00
2023-04-16T15:16:43.423Z,11.80
2023-04-16T15:19:17.990Z,10.50
2023-04-16T15:21:49.292Z,10.20
2023-04-16T15:24:19.634Z,10.70
2023-04-16T15:26:51.780Z,10.60
2023-04-16T15:29:24.553Z,12.90
2023-04-16T15:31:54.400Z,13.00
2023-04-16T15:34:28.947Z,19.70
2023-04-16T15:37:14.086Z,10.80
2023-04-16T15:39:45.098Z,13.60
2023-04-16T15:42:14.864Z,10.10
2023-04-16T15:44:44.372Z,12.10
2023-04-16T15:47:15.368Z,11.50
2023-04-16T15:50:08.990Z,14.80
2023-04-16T15:55:10.191Z,14.30
2023-04-16T15:57:41.279Z,15.90
2023-04-16T16:00:17.276Z,13.00
2023-04-16T16:02:48.106Z,14.40
2023-04-16T16:05:18.768Z,12.80
2023-04-16T16:07:48.592Z,12.70
2023-04-16T16:10:18.019Z,10.90
2023-04-16T16:12:48.263Z,11.10
2023-04-16T16:15:21.406Z,14.20
2023-04-16T16:17:53.562Z,14.70
2023-04-16T16:20:23.536Z,17.60
2023-04-16T16:22:56.655Z,15.50
2023-04-16T16:25:26.158Z,13.40
2023-04-16T16:27:55.579Z,22.30
2023-04-16T16:30:27.882Z,18.20
2023-04-16T16:33:00.366Z,13.20
2023-04-16T16:35:29.780Z,15.60
2023-04-16T16:37:59.714Z,13.40
2023-04-16T16:40:29.546Z,18.40
2023-04-16T16:43:01.542Z,15.90
2023-04-16T16:45:31.968Z,13.90
2023-04-16T16:48:03.645Z,17.90
2023-04-16T16:50:33.384Z,16.50
2023-04-16T16:53:03.527Z,14.60
2023-04-16T16:55:32.928Z,19.60
2023-04-16T16:58:02.950Z,18.10
2023-04-16T17:00:38.661Z,11.50
2023-04-16T17:03:09.603Z,16.00
2023-04-16T17:05:40.635Z,15.50
2023-04-16T17:08:14.120Z,12.40
2023-04-16T17:10:46.402Z,14.60
2023-04-16T17:13:20.427Z,13.20
2023-04-16T17:15:49.929Z,17.50
2023-04-16T17:18:19.473Z,15.90
2023-04-16T17:20:49.613Z,16.20
2023-04-16T17:23:20.056Z,17.00
2023-04-16T17:25:55.159Z,16.50
2023-04-16T17:28:26.406Z,17.60
2023-04-16T17:30:58.496Z,19.90
2023-04-16T17:33:29.384Z,17.50
2023-04-16T17:35:58.814Z,17.30
2023-04-16T17:38:28.131Z,18.30
2023-04-16T17:40:58.267Z,16.70
2023-04-16T17:43:28.459Z,17.30
2023-04-16T17:45:58.141Z,16.20
2023-04-16T17:48:29.944Z,14.80
2023-04-16T17:50:59.329Z,22.20
2023-04-16T17:53:28.574Z,26.40
2023-04-16T17:55:57.883Z,17.80
2023-04-16T17:58:27.164Z,23.80
2023-04-16T18:00:56.399Z,19.60
2023-04-16T18:03:25.921Z,21.70
2023-04-16T18:05:55.495Z,22.40
2023-04-16T18:08:25.879Z,21.90
2023-04-16T18:10:56.699Z,17.70
2023-04-16T18:13:28.308Z,22.20
2023-04-16T18:15:57.815Z,22.10
2023-04-16T18:18:27.626Z,19.60
2023-04-16T18:20:59.430Z,18.80
2023-04-16T18:23:28.770Z,19.50
2023-04-16T18:25:58.802Z,19.80
2023-04-16T18:28:29.349Z,16.50
2023-04-16T18:31:03.900Z,22.80
2023-04-16T18:33:53.965Z,19.50
2023-04-16T18:36:22.998Z,20.00
2023-04-16T18:38:59.989Z,22.50
2023-04-16T18:41:31.455Z,21.30
2023-04-16T18:44:00.942Z,20.10
2023-04-16T18:46:30.283Z,24.50
2023-04-16T18:48:59.695Z,19.40
2023-04-16T18:51:28.988Z,24.50
2023-04-16T18:53:59.703Z,27.10
2023-04-16T18:56:34.668Z,22.20
2023-04-16T18:59:04.279Z,32.30
2023-04-16T19:01:34.717Z,17.10
2023-04-16T19:04:04.232Z,27.80
2023-04-16T19:06:33.568Z,19.70
2023-04-16T19:09:02.920Z,21.90
2023-04-16T19:11:32.409Z,21.50
2023-04-16T19:14:03.424Z,24.00
2023-04-16T19:16:32.934Z,16.40
2023-04-16T19:19:02.502Z,19.10
2023-04-16T19:21:34.865Z,19.20
2023-04-16T19:24:04.463Z,18.80
2023-04-16T19:26:33.814Z,17.60
2023-04-16T19:29:03.591Z,20.90
2023-04-16T19:31:33.350Z,17.50
2023-04-16T19:34:02.709Z,18.50
2023-04-16T19:36:32.549Z,21.00
2023-04-16T19:39:02.512Z,13.90
2023-04-16T19:41:32.022Z,22.50
2023-04-16T19:44:01.457Z,10.20
2023-04-16T19:46:30.863Z,15.90
2023-04-16T19:49:00.408Z,17.20
2023-04-16T19:51:30.828Z,26.80
2023-04-16T19:54:01.847Z,18.50
2023-04-16T19:56:33.683Z,23.40
2023-04-16T19:59:03.220Z,17.40
2023-04-16T20:01:35.209Z,25.50
2023-04-16T20:04:04.791Z,22.80
2023-04-16T20:06:34.287Z,16.80
2023-04-16T20:09:04.838Z,13.80
2023-04-16T20:11:35.555Z,17.30
2023-04-16T20:14:04.909Z,20.40
2023-04-16T20:16:35.207Z,22.80
2023-04-16T20:19:08.627Z,22.40
2023-04-16T20:21:40.420Z,21.80
2023-04-16T20:24:10.768Z,22.90
2023-04-16T20:26:40.195Z,17.30
2023-04-16T20:29:10.371Z,22.40
2023-04-16T20:31:41.658Z,21.80
2023-04-16T20:34:10.993Z,17.80
2023-04-16T20:36:40.592Z,24.20
2023-04-16T20:39:11.100Z,17.20
2023-04-16T20:41:44.018Z,23.60
2023-04-16T20:44:18.919Z,27.50
2023-04-16T20:46:49.990Z,17.90
2023-04-16T20:49:19.514Z,21.10
2023-04-16T20:51:48.926Z,19.90
2023-04-16T20:54:18.377Z,22.90
2023-04-16T20:56:47.744Z,32.30
2023-04-16T20:59:17.209Z,21.90
2023-04-16T21:01:47.774Z,23.80
2023-04-16T21:04:17.302Z,15.70
2023-04-16T21:06:47.079Z,21.40
2023-04-16T21:09:16.732Z,19.70
2023-04-16T21:11:46.357Z,21.80
2023-04-16T21:14:15.791Z,20.30
2023-04-16T21:16:45.114Z,17.50
2023-04-16T21:19:14.519Z,22.40
2023-04-16T21:21:43.891Z,19.30
2023-04-16T21:24:13.481Z,25.70
2023-04-16T21:26:42.830Z,25.20
2023-04-16T21:29:12.446Z,25.60
2023-04-16T21:31:41.993Z,17.10
2023-04-16T21:34:12.340Z,23.00
2023-04-16T21:36:42.906Z,25.60
2023-04-16T21:39:12.510Z,24.70
2023-04-16T21:41:41.958Z,17.70
2023-04-16T21:44:11.207Z,19.60
2023-04-16T21:46:43.689Z,26.30
2023-04-16T21:49:13.331Z,20.10
2023-04-16T21:51:43.188Z,21.10
2023-04-16T21:54:13.418Z,27.30
2023-04-16T21:56:42.710Z,26.90
2023-04-16T21:59:12.161Z,24.90
2023-04-16T22:01:41.776Z,18.90
2023-04-16T22:04:12.344Z,20.20
2023-04-16T22:06:43.151Z,19.40
2023-04-16T22:09:12.696Z,21.50
2023-04-16T22:11:42.261Z,15.20
2023-04-16T22:14:11.933Z,17.00
2023-04-16T22:16:42.059Z,20.40
2023-04-16T22:19:11.775Z,21.00
2023-04-16T22:21:42.772Z,24.00
2023-04-16T22:24:12.589Z,21.90
2023-04-16T22:26:43.330Z,17.70
2023-04-16T22:29:14.670Z,13.90
2023-04-16T22:31:43.992Z,22.90
2023-04-16T22:34:14.487Z,19.40
2023-04-16T22:36:46.458Z,19.70
2023-04-16T22:39:15.822Z,24.20
2023-04-16T22:41:45.567Z,18.90
2023-04-16T22:44:16.300Z,16.30
2023-04-16T22:46:46.938Z,23.60
2023-04-16T22:49:16.180Z,22.10
2023-04-16T22:51:49.340Z,26.00
2023-04-16T22:54:18.709Z,18.80
2023-04-16T22:56:49.237Z,16.60
2023-04-16T22:59:21.493Z,18.50
2023-04-16T23:01:52.344Z,21.10
2023-04-16T23:04:21.958Z,25.10
2023-04-16T23:09:22.524Z,24.50
2023-04-16T23:11:51.944Z,20.90
2023-04-16T23:14:21.466Z,23.20
2023-04-16T23:16:50.807Z,23.00
2023-04-16T23:19:20.151Z,23.10
2023-04-16T23:21:49.474Z,19.70
2023-04-16T23:24:18.817Z,24.10
2023-04-16T23:26:48.323Z,23.30
2023-04-16T23:29:17.671Z,26.10
2023-04-16T23:31:47.414Z,26.80
2023-04-16T23:34:16.974Z,22.50
2023-04-16T23:36:47.110Z,22.40
2023-04-16T23:39:18.053Z,19.50
2023-04-16T23:41:47.761Z,25.70
2023-04-16T23:44:21.998Z,21.30
2023-04-16T23:46:52.714Z,20.50
2023-04-16T23:49:24.866Z,17.90
2023-04-16T23:51:54.592Z,19.50
2023-04-16T23:54:24.464Z,23.60
2023-04-16T23:56:53.921Z,17.40
2023-04-16T23:59:24.358Z,22.30
